KBBW/BBW METAR and TAF weather

Enter ICAO airport designator
Station Type Date Time Source
KBBW METAR 2022/12/08 12:35 UTC NOAA

KBBW 081235Z AUTO 00000KT 3SM BR OVC002 M08/M10 A3013 RMK AO2 T10781100


Station Type Date Time Source
KBBW Decoded METAR 2022/12/08 12:35 UTC NOAA

BROKEN BOW MUNICIPAL AIRPORT, NE, United States (KBBW) 41-26N 099-38W
Dec 08, 2022 - 07:35 AM EST / 2022.12.08 1235 UTC
Wind: Calm:0
Visibility: 3 mile(s):0
Sky conditions: overcast
Weather: mist
Temperature: 18.0 F (-7.8 C)
Dew Point: 14.0 F (-10.0 C)
Relative Humidity: 84%
Pressure (altimeter): 30.13 in. Hg (1020 hPa)
ob: KBBW 081235Z AUTO 00000KT 3SM BR OVC002 M08/M10 A3013 RMK AO2 T10781100
cycle: 12

Station Type Date Time Source
KBBW TAF UTC NOAA

Error!

Example: see airport list